sensor_id;sensor_type;location;lat;lon;timestamp;P1;durP1;ratioP1;P2;durP2;ratioP2
56321;SDS011;42227;6.376;-10.782;2024-01-27T00:00:13;98.30;;;54.90;;
56321;SDS011;42227;6.376;-10.782;2024-01-27T00:02:43;77.50;;;48.83;;
56321;SDS011;42227;6.376;-10.782;2024-01-27T00:05:11;78.50;;;41.75;;
56321;SDS011;42227;6.376;-10.782;2024-01-27T00:07:40;82.97;;;44.15;;
56321;SDS011;42227;6.376;-10.782;2024-01-27T00:10:09;69.38;;;41.72;;
56321;SDS011;42227;6.376;-10.782;2024-01-27T00:12:38;74.93;;;44.08;;
56321;SDS011;42227;6.376;-10.782;2024-01-27T00:15:07;78.10;;;48.00;;
56321;SDS011;42227;6.376;-10.782;2024-01-27T00:17:36;81.03;;;44.58;;
56321;SDS011;42227;6.376;-10.782;2024-01-27T00:20:05;72.40;;;39.20;;
56321;SDS011;42227;6.376;-10.782;2024-01-27T00:22:34;64.15;;;39.70;;
56321;SDS011;42227;6.376;-10.782;2024-01-27T00:25:02;54.90;;;31.10;;
56321;SDS011;42227;6.376;-10.782;2024-01-27T00:27:31;46.88;;;28.08;;
56321;SDS011;42227;6.376;-10.782;2024-01-27T00:30:00;60.92;;;36.05;;
56321;SDS011;42227;6.376;-10.782;2024-01-27T00:32:28;55.35;;;36.15;;
56321;SDS011;42227;6.376;-10.782;2024-01-27T00:34:57;67.63;;;37.47;;
56321;SDS011;42227;6.376;-10.782;2024-01-27T00:37:25;95.78;;;49.40;;
56321;SDS011;42227;6.376;-10.782;2024-01-27T00:39:54;66.25;;;40.83;;
56321;SDS011;42227;6.376;-10.782;2024-01-27T00:42:22;65.07;;;36.67;;
56321;SDS011;42227;6.376;-10.782;2024-01-27T00:44:51;59.35;;;32.95;;
56321;SDS011;42227;6.376;-10.782;2024-01-27T00:47:20;64.20;;;37.50;;
56321;SDS011;42227;6.376;-10.782;2024-01-27T00:49:49;73.47;;;43.72;;
56321;SDS011;42227;6.376;-10.782;2024-01-27T00:52:18;76.65;;;45.58;;
56321;SDS011;42227;6.376;-10.782;2024-01-27T00:54:46;80.20;;;51.08;;
56321;SDS011;42227;6.376;-10.782;2024-01-27T00:57:15;74.05;;;48.40;;
56321;SDS011;42227;6.376;-10.782;2024-01-27T00:59:43;86.13;;;45.88;;
56321;SDS011;42227;6.376;-10.782;2024-01-27T01:02:12;85.68;;;51.03;;
56321;SDS011;42227;6.376;-10.782;2024-01-27T01:04:41;92.68;;;49.15;;
56321;SDS011;42227;6.376;-10.782;2024-01-27T01:07:10;94.07;;;46.90;;
56321;SDS011;42227;6.376;-10.782;2024-01-27T01:09:38;79.72;;;42.85;;
56321;SDS011;42227;6.376;-10.782;2024-01-27T01:12:07;72.13;;;45.42;;
56321;SDS011;42227;6.376;-10.782;2024-01-27T01:14:35;92.78;;;49.55;;
56321;SDS011;42227;6.376;-10.782;2024-01-27T01:17:04;69.97;;;37.67;;
56321;SDS011;42227;6.376;-10.782;2024-01-27T01:19:32;57.55;;;31.85;;
56321;SDS011;42227;6.376;-10.782;2024-01-27T01:22:01;73.47;;;41.33;;
56321;SDS011;42227;6.376;-10.782;2024-01-27T01:24:29;75.13;;;43.03;;
56321;SDS011;42227;6.376;-10.782;2024-01-27T01:26:58;72.00;;;40.05;;
56321;SDS011;42227;6.376;-10.782;2024-01-27T01:29:26;56.30;;;33.15;;
56321;SDS011;42227;6.376;-10.782;2024-01-27T01:31:55;62.42;;;39.30;;
56321;SDS011;42227;6.376;-10.782;2024-01-27T01:34:23;66.03;;;40.78;;
56321;SDS011;42227;6.376;-10.782;2024-01-27T01:36:52;99.57;;;54.75;;
56321;SDS011;42227;6.376;-10.782;2024-01-27T01:39:20;74.18;;;37.40;;
56321;SDS011;42227;6.376;-10.782;2024-01-27T01:41:49;60.63;;;27.83;;
56321;SDS011;42227;6.376;-10.782;2024-01-27T01:44:18;38.47;;;23.60;;
56321;SDS011;42227;6.376;-10.782;2024-01-27T01:46:50;54.95;;;24.58;;
56321;SDS011;42227;6.376;-10.782;2024-01-27T01:49:19;38.92;;;23.10;;
56321;SDS011;42227;6.376;-10.782;2024-01-27T01:51:48;88.80;;;55.20;;
56321;SDS011;42227;6.376;-10.782;2024-01-27T01:54:17;126.05;;;71.60;;
56321;SDS011;42227;6.376;-10.782;2024-01-27T01:56:45;102.80;;;58.83;;
56321;SDS011;42227;6.376;-10.782;2024-01-27T01:59:14;47.13;;;32.85;;
56321;SDS011;42227;6.376;-10.782;2024-01-27T02:01:42;57.35;;;34.92;;
56321;SDS011;42227;6.376;-10.782;2024-01-27T02:04:12;61.70;;;35.35;;
56321;SDS011;42227;6.376;-10.782;2024-01-27T02:06:40;65.28;;;40.25;;
56321;SDS011;42227;6.376;-10.782;2024-01-27T02:09:09;72.00;;;42.47;;
56321;SDS011;42227;6.376;-10.782;2024-01-27T02:11:38;68.90;;;44.78;;
56321;SDS011;42227;6.376;-10.782;2024-01-27T02:14:08;72.18;;;39.30;;
56321;SDS011;42227;6.376;-10.782;2024-01-27T02:16:36;60.13;;;39.42;;
56321;SDS011;42227;6.376;-10.782;2024-01-27T02:19:05;54.63;;;36.83;;
56321;SDS011;42227;6.376;-10.782;2024-01-27T02:21:33;61.42;;;37.72;;
56321;SDS011;42227;6.376;-10.782;2024-01-27T02:24:06;66.70;;;42.58;;
56321;SDS011;42227;6.376;-10.782;2024-01-27T02:26:35;75.00;;;49.85;;
56321;SDS011;42227;6.376;-10.782;2024-01-27T02:29:03;75.55;;;50.70;;
56321;SDS011;42227;6.376;-10.782;2024-01-27T02:31:32;66.85;;;47.58;;
56321;SDS011;42227;6.376;-10.782;2024-01-27T02:34:00;82.28;;;47.90;;
56321;SDS011;42227;6.376;-10.782;2024-01-27T02:36:29;69.78;;;48.70;;
56321;SDS011;42227;6.376;-10.782;2024-01-27T02:38:57;69.68;;;47.15;;
56321;SDS011;42227;6.376;-10.782;2024-01-27T02:41:26;95.90;;;51.58;;
56321;SDS011;42227;6.376;-10.782;2024-01-27T02:43:55;81.25;;;47.42;;
56321;SDS011;42227;6.376;-10.782;2024-01-27T02:46:23;80.88;;;50.10;;
56321;SDS011;42227;6.376;-10.782;2024-01-27T02:48:51;73.88;;;51.75;;
56321;SDS011;42227;6.376;-10.782;2024-01-27T02:51:29;70.85;;;51.50;;
56321;SDS011;42227;6.376;-10.782;2024-01-27T02:53:59;71.82;;;50.33;;
56321;SDS011;42227;6.376;-10.782;2024-01-27T02:56:27;87.25;;;53.30;;
56321;SDS011;42227;6.376;-10.782;2024-01-27T02:58:56;77.70;;;50.17;;
56321;SDS011;42227;6.376;-10.782;2024-01-27T03:01:24;82.88;;;50.17;;
56321;SDS011;42227;6.376;-10.782;2024-01-27T03:03:53;76.95;;;49.67;;
56321;SDS011;42227;6.376;-10.782;2024-01-27T03:06:21;89.57;;;49.88;;
56321;SDS011;42227;6.376;-10.782;2024-01-27T03:08:50;83.35;;;52.20;;
56321;SDS011;42227;6.376;-10.782;2024-01-27T03:11:18;88.70;;;52.78;;
56321;SDS011;42227;6.376;-10.782;2024-01-27T03:13:46;81.95;;;54.72;;
56321;SDS011;42227;6.376;-10.782;2024-01-27T03:16:15;85.22;;;53.33;;
56321;SDS011;42227;6.376;-10.782;2024-01-27T03:18:45;79.40;;;52.25;;
56321;SDS011;42227;6.376;-10.782;2024-01-27T03:21:14;82.75;;;54.88;;
56321;SDS011;42227;6.376;-10.782;2024-01-27T03:23:42;86.93;;;51.75;;
56321;SDS011;42227;6.376;-10.782;2024-01-27T03:26:10;78.45;;;55.33;;
56321;SDS011;42227;6.376;-10.782;2024-01-27T03:28:39;94.00;;;54.47;;
56321;SDS011;42227;6.376;-10.782;2024-01-27T03:31:07;77.53;;;53.08;;
56321;SDS011;42227;6.376;-10.782;2024-01-27T03:33:36;86.28;;;51.50;;
56321;SDS011;42227;6.376;-10.782;2024-01-27T03:36:14;69.80;;;49.67;;
56321;SDS011;42227;6.376;-10.782;2024-01-27T03:38:43;71.90;;;45.58;;
56321;SDS011;42227;6.376;-10.782;2024-01-27T03:41:11;80.57;;;44.90;;
56321;SDS011;42227;6.376;-10.782;2024-01-27T03:43:39;62.22;;;45.72;;
56321;SDS011;42227;6.376;-10.782;2024-01-27T03:46:08;69.05;;;42.75;;
56321;SDS011;42227;6.376;-10.782;2024-01-27T03:48:36;65.75;;;47.05;;
56321;SDS011;42227;6.376;-10.782;2024-01-27T03:51:05;73.07;;;48.20;;
56321;SDS011;42227;6.376;-10.782;2024-01-27T03:53:36;74.55;;;45.60;;
56321;SDS011;42227;6.376;-10.782;2024-01-27T03:56:05;63.00;;;44.95;;
56321;SDS011;42227;6.376;-10.782;2024-01-27T03:58:33;63.47;;;44.65;;
56321;SDS011;42227;6.376;-10.782;2024-01-27T04:01:03;55.83;;;41.38;;
56321;SDS011;42227;6.376;-10.782;2024-01-27T04:03:31;55.78;;;41.47;;
56321;SDS011;42227;6.376;-10.782;2024-01-27T04:06:00;58.97;;;42.75;;
56321;SDS011;42227;6.376;-10.782;2024-01-27T04:08:29;61.03;;;40.65;;
56321;SDS011;42227;6.376;-10.782;2024-01-27T04:10:58;54.90;;;40.42;;
56321;SDS011;42227;6.376;-10.782;2024-01-27T04:13:26;51.65;;;40.35;;
56321;SDS011;42227;6.376;-10.782;2024-01-27T04:15:55;66.32;;;42.25;;
56321;SDS011;42227;6.376;-10.782;2024-01-27T04:18:23;55.10;;;41.53;;
56321;SDS011;42227;6.376;-10.782;2024-01-27T04:20:52;57.15;;;39.45;;
56321;SDS011;42227;6.376;-10.782;2024-01-27T04:23:20;63.47;;;40.72;;
56321;SDS011;42227;6.376;-10.782;2024-01-27T04:25:48;50.83;;;40.40;;
56321;SDS011;42227;6.376;-10.782;2024-01-27T04:28:17;57.35;;;42.50;;
56321;SDS011;42227;6.376;-10.782;2024-01-27T04:30:45;59.92;;;41.95;;
56321;SDS011;42227;6.376;-10.782;2024-01-27T04:33:13;59.85;;;38.67;;
56321;SDS011;42227;6.376;-10.782;2024-01-27T04:35:42;57.45;;;43.47;;
56321;SDS011;42227;6.376;-10.782;2024-01-27T04:38:11;70.28;;;41.55;;
56321;SDS011;42227;6.376;-10.782;2024-01-27T04:40:39;71.80;;;43.72;;
56321;SDS011;42227;6.376;-10.782;2024-01-27T04:43:07;66.00;;;45.15;;
56321;SDS011;42227;6.376;-10.782;2024-01-27T04:45:36;50.13;;;40.90;;
56321;SDS011;42227;6.376;-10.782;2024-01-27T04:48:04;62.30;;;40.20;;
56321;SDS011;42227;6.376;-10.782;2024-01-27T04:50:34;57.67;;;41.35;;
56321;SDS011;42227;6.376;-10.782;2024-01-27T04:53:02;64.72;;;43.10;;
56321;SDS011;42227;6.376;-10.782;2024-01-27T04:55:30;59.53;;;41.15;;
56321;SDS011;42227;6.376;-10.782;2024-01-27T04:57:59;56.00;;;41.38;;
56321;SDS011;42227;6.376;-10.782;2024-01-27T05:00:27;61.53;;;40.97;;
56321;SDS011;42227;6.376;-10.782;2024-01-27T05:02:55;69.85;;;45.88;;
56321;SDS011;42227;6.376;-10.782;2024-01-27T05:05:25;82.05;;;48.63;;
56321;SDS011;42227;6.376;-10.782;2024-01-27T05:07:53;66.72;;;44.20;;
56321;SDS011;42227;6.376;-10.782;2024-01-27T05:10:22;56.53;;;45.55;;
56321;SDS011;42227;6.376;-10.782;2024-01-27T05:12:50;67.43;;;44.80;;
56321;SDS011;42227;6.376;-10.782;2024-01-27T05:15:19;45.83;;;34.08;;
56321;SDS011;42227;6.376;-10.782;2024-01-27T05:17:47;51.03;;;32.05;;
56321;SDS011;42227;6.376;-10.782;2024-01-27T05:20:16;44.97;;;32.95;;
56321;SDS011;42227;6.376;-10.782;2024-01-27T05:22:45;39.20;;;28.90;;
56321;SDS011;42227;6.376;-10.782;2024-01-27T05:25:14;42.25;;;33.50;;
56321;SDS011;42227;6.376;-10.782;2024-01-27T05:27:42;43.55;;;29.52;;
56321;SDS011;42227;6.376;-10.782;2024-01-27T05:30:11;45.95;;;30.67;;
56321;SDS011;42227;6.376;-10.782;2024-01-27T05:32:39;47.88;;;34.20;;
56321;SDS011;42227;6.376;-10.782;2024-01-27T05:35:08;47.25;;;35.67;;
56321;SDS011;42227;6.376;-10.782;2024-01-27T05:37:36;56.00;;;35.65;;
56321;SDS011;42227;6.376;-10.782;2024-01-27T05:40:06;63.10;;;39.25;;
56321;SDS011;42227;6.376;-10.782;2024-01-27T05:42:35;69.97;;;49.45;;
56321;SDS011;42227;6.376;-10.782;2024-01-27T05:45:03;60.05;;;49.13;;
56321;SDS011;42227;6.376;-10.782;2024-01-27T05:47:32;73.75;;;53.97;;
56321;SDS011;42227;6.376;-10.782;2024-01-27T05:50:01;71.85;;;49.85;;
56321;SDS011;42227;6.376;-10.782;2024-01-27T05:52:29;54.58;;;35.67;;
56321;SDS011;42227;6.376;-10.782;2024-01-27T05:54:58;42.88;;;33.63;;
56321;SDS011;42227;6.376;-10.782;2024-01-27T05:57:26;54.90;;;32.95;;
56321;SDS011;42227;6.376;-10.782;2024-01-27T05:59:55;51.00;;;31.50;;
56321;SDS011;42227;6.376;-10.782;2024-01-27T06:02:23;43.88;;;30.25;;
56321;SDS011;42227;6.376;-10.782;2024-01-27T06:04:52;47.97;;;28.85;;
56321;SDS011;42227;6.376;-10.782;2024-01-27T06:07:20;48.45;;;28.80;;
56321;SDS011;42227;6.376;-10.782;2024-01-27T06:09:48;52.22;;;27.98;;
56321;SDS011;42227;6.376;-10.782;2024-01-27T06:12:17;58.38;;;32.63;;
56321;SDS011;42227;6.376;-10.782;2024-01-27T06:14:45;44.88;;;30.63;;
56321;SDS011;42227;6.376;-10.782;2024-01-27T06:17:13;42.75;;;29.38;;
56321;SDS011;42227;6.376;-10.782;2024-01-27T06:19:42;46.53;;;31.05;;
56321;SDS011;42227;6.376;-10.782;2024-01-27T06:22:10;41.53;;;28.85;;
56321;SDS011;42227;6.376;-10.782;2024-01-27T06:24:45;35.60;;;28.75;;
56321;SDS011;42227;6.376;-10.782;2024-01-27T06:27:13;41.13;;;28.90;;
56321;SDS011;42227;6.376;-10.782;2024-01-27T06:29:42;39.38;;;29.63;;
56321;SDS011;42227;6.376;-10.782;2024-01-27T06:32:10;45.95;;;30.80;;
56321;SDS011;42227;6.376;-10.782;2024-01-27T06:34:39;44.83;;;31.75;;
56321;SDS011;42227;6.376;-10.782;2024-01-27T06:37:08;39.17;;;27.45;;
56321;SDS011;42227;6.376;-10.782;2024-01-27T06:39:36;43.72;;;29.15;;
56321;SDS011;42227;6.376;-10.782;2024-01-27T06:42:04;46.17;;;28.90;;
56321;SDS011;42227;6.376;-10.782;2024-01-27T06:44:33;40.13;;;28.70;;
56321;SDS011;42227;6.376;-10.782;2024-01-27T06:47:01;38.60;;;29.48;;
56321;SDS011;42227;6.376;-10.782;2024-01-27T06:49:30;32.70;;;27.15;;
56321;SDS011;42227;6.376;-10.782;2024-01-27T06:51:58;46.30;;;30.60;;
56321;SDS011;42227;6.376;-10.782;2024-01-27T06:54:27;48.40;;;31.20;;
56321;SDS011;42227;6.376;-10.782;2024-01-27T06:56:55;52.38;;;32.83;;
56321;SDS011;42227;6.376;-10.782;2024-01-27T06:59:26;55.95;;;41.67;;
56321;SDS011;42227;6.376;-10.782;2024-01-27T07:01:55;54.47;;;41.20;;
56321;SDS011;42227;6.376;-10.782;2024-01-27T07:04:23;66.95;;;36.00;;
56321;SDS011;42227;6.376;-10.782;2024-01-27T07:06:52;59.10;;;37.88;;
56321;SDS011;42227;6.376;-10.782;2024-01-27T07:09:20;49.10;;;33.75;;
56321;SDS011;42227;6.376;-10.782;2024-01-27T07:11:48;46.08;;;33.33;;
56321;SDS011;42227;6.376;-10.782;2024-01-27T07:14:17;52.47;;;32.95;;
56321;SDS011;42227;6.376;-10.782;2024-01-27T07:16:45;43.80;;;33.08;;
56321;SDS011;42227;6.376;-10.782;2024-01-27T07:19:14;50.22;;;35.72;;
56321;SDS011;42227;6.376;-10.782;2024-01-27T07:21:42;42.70;;;30.92;;
56321;SDS011;42227;6.376;-10.782;2024-01-27T07:24:11;51.45;;;35.60;;
56321;SDS011;42227;6.376;-10.782;2024-01-27T07:26:39;45.50;;;33.63;;
56321;SDS011;42227;6.376;-10.782;2024-01-27T07:29:07;48.35;;;31.38;;
56321;SDS011;42227;6.376;-10.782;2024-01-27T07:31:36;61.47;;;36.83;;
56321;SDS011;42227;6.376;-10.782;2024-01-27T07:34:04;48.10;;;34.38;;
56321;SDS011;42227;6.376;-10.782;2024-01-27T07:36:33;46.13;;;32.42;;
56321;SDS011;42227;6.376;-10.782;2024-01-27T07:39:02;42.67;;;31.35;;
56321;SDS011;42227;6.376;-10.782;2024-01-27T07:41:30;38.85;;;29.70;;
56321;SDS011;42227;6.376;-10.782;2024-01-27T07:44:13;43.67;;;30.90;;
56321;SDS011;42227;6.376;-10.782;2024-01-27T07:46:42;51.47;;;32.28;;
56321;SDS011;42227;6.376;-10.782;2024-01-27T07:49:10;61.28;;;33.50;;
56321;SDS011;42227;6.376;-10.782;2024-01-27T07:51:39;43.22;;;31.92;;
56321;SDS011;42227;6.376;-10.782;2024-01-27T07:54:07;50.88;;;30.30;;
56321;SDS011;42227;6.376;-10.782;2024-01-27T07:56:37;41.45;;;29.35;;
56321;SDS011;42227;6.376;-10.782;2024-01-27T07:59:05;43.13;;;32.10;;
56321;SDS011;42227;6.376;-10.782;2024-01-27T08:01:34;37.17;;;31.00;;
56321;SDS011;42227;6.376;-10.782;2024-01-27T08:04:02;48.97;;;33.30;;
56321;SDS011;42227;6.376;-10.782;2024-01-27T08:06:31;40.20;;;33.15;;
56321;SDS011;42227;6.376;-10.782;2024-01-27T08:09:02;42.33;;;31.13;;
56321;SDS011;42227;6.376;-10.782;2024-01-27T08:11:31;38.75;;;29.08;;
56321;SDS011;42227;6.376;-10.782;2024-01-27T08:14:00;43.53;;;33.83;;
56321;SDS011;42227;6.376;-10.782;2024-01-27T08:16:28;53.17;;;29.98;;
56321;SDS011;42227;6.376;-10.782;2024-01-27T08:18:57;42.80;;;30.33;;
56321;SDS011;42227;6.376;-10.782;2024-01-27T08:21:25;44.40;;;26.38;;
56321;SDS011;42227;6.376;-10.782;2024-01-27T08:23:54;32.45;;;24.75;;
56321;SDS011;42227;6.376;-10.782;2024-01-27T08:26:22;33.83;;;24.52;;
56321;SDS011;42227;6.376;-10.782;2024-01-27T08:28:51;32.72;;;23.30;;
56321;SDS011;42227;6.376;-10.782;2024-01-27T08:31:19;33.40;;;23.58;;
56321;SDS011;42227;6.376;-10.782;2024-01-27T08:33:47;34.80;;;24.00;;
56321;SDS011;42227;6.376;-10.782;2024-01-27T08:36:16;41.05;;;27.58;;
56321;SDS011;42227;6.376;-10.782;2024-01-27T08:38:44;39.53;;;28.35;;
56321;SDS011;42227;6.376;-10.782;2024-01-27T08:41:13;38.90;;;30.35;;
56321;SDS011;42227;6.376;-10.782;2024-01-27T08:43:41;41.28;;;31.48;;
56321;SDS011;42227;6.376;-10.782;2024-01-27T08:46:10;38.72;;;31.58;;
56321;SDS011;42227;6.376;-10.782;2024-01-27T08:48:38;40.92;;;30.90;;
56321;SDS011;42227;6.376;-10.782;2024-01-27T08:51:10;36.72;;;28.80;;
56321;SDS011;42227;6.376;-10.782;2024-01-27T08:53:39;29.92;;;23.05;;
56321;SDS011;42227;6.376;-10.782;2024-01-27T08:56:07;33.17;;;25.73;;
56321;SDS011;42227;6.376;-10.782;2024-01-27T08:58:36;30.83;;;24.55;;
56321;SDS011;42227;6.376;-10.782;2024-01-27T09:01:04;53.47;;;26.15;;
56321;SDS011;42227;6.376;-10.782;2024-01-27T09:03:32;29.58;;;25.33;;
56321;SDS011;42227;6.376;-10.782;2024-01-27T09:06:01;36.72;;;25.17;;
56321;SDS011;42227;6.376;-10.782;2024-01-27T09:08:29;33.00;;;24.25;;
56321;SDS011;42227;6.376;-10.782;2024-01-27T09:10:58;33.53;;;23.77;;
56321;SDS011;42227;6.376;-10.782;2024-01-27T09:13:26;34.95;;;21.65;;
56321;SDS011;42227;6.376;-10.782;2024-01-27T09:15:55;38.17;;;22.13;;
56321;SDS011;42227;6.376;-10.782;2024-01-27T09:18:26;39.13;;;20.50;;
56321;SDS011;42227;6.376;-10.782;2024-01-27T09:20:55;25.65;;;19.55;;
56321;SDS011;42227;6.376;-10.782;2024-01-27T09:23:24;26.88;;;19.08;;
56321;SDS011;42227;6.376;-10.782;2024-01-27T09:25:52;22.85;;;18.40;;
56321;SDS011;42227;6.376;-10.782;2024-01-27T09:28:20;21.77;;;19.20;;
56321;SDS011;42227;6.376;-10.782;2024-01-27T09:30:49;23.25;;;16.63;;
56321;SDS011;42227;6.376;-10.782;2024-01-27T09:33:17;21.83;;;17.85;;
56321;SDS011;42227;6.376;-10.782;2024-01-27T09:35:46;24.55;;;18.58;;
56321;SDS011;42227;6.376;-10.782;2024-01-27T09:38:14;30.08;;;17.45;;
56321;SDS011;42227;6.376;-10.782;2024-01-27T09:40:43;25.70;;;17.73;;
56321;SDS011;42227;6.376;-10.782;2024-01-27T09:43:12;26.60;;;16.75;;
56321;SDS011;42227;6.376;-10.782;2024-01-27T09:45:41;26.95;;;16.95;;
56321;SDS011;42227;6.376;-10.782;2024-01-27T09:48:10;23.35;;;15.38;;
56321;SDS011;42227;6.376;-10.782;2024-01-27T09:50:41;31.75;;;17.50;;
56321;SDS011;42227;6.376;-10.782;2024-01-27T09:53:10;23.15;;;16.45;;
56321;SDS011;42227;6.376;-10.782;2024-01-27T09:55:38;16.33;;;14.50;;
56321;SDS011;42227;6.376;-10.782;2024-01-27T09:58:06;24.55;;;15.27;;
56321;SDS011;42227;6.376;-10.782;2024-01-27T10:00:36;26.48;;;15.15;;
56321;SDS011;42227;6.376;-10.782;2024-01-27T10:03:06;27.02;;;16.98;;
56321;SDS011;42227;6.376;-10.782;2024-01-27T10:05:36;21.50;;;14.32;;
56321;SDS011;42227;6.376;-10.782;2024-01-27T10:08:06;22.15;;;13.70;;
56321;SDS011;42227;6.376;-10.782;2024-01-27T10:10:35;26.35;;;18.35;;
56321;SDS011;42227;6.376;-10.782;2024-01-27T10:13:03;20.73;;;16.63;;
56321;SDS011;42227;6.376;-10.782;2024-01-27T10:15:32;23.33;;;15.00;;
56321;SDS011;42227;6.376;-10.782;2024-01-27T10:18:04;32.08;;;13.98;;
56321;SDS011;42227;6.376;-10.782;2024-01-27T10:20:33;20.40;;;14.95;;
56321;SDS011;42227;6.376;-10.782;2024-01-27T10:23:11;28.58;;;15.18;;
56321;SDS011;42227;6.376;-10.782;2024-01-27T10:25:40;18.58;;;14.30;;
56321;SDS011;42227;6.376;-10.782;2024-01-27T10:28:09;20.58;;;14.32;;
56321;SDS011;42227;6.376;-10.782;2024-01-27T10:30:37;24.48;;;15.45;;
56321;SDS011;42227;6.376;-10.782;2024-01-27T10:33:09;23.30;;;14.70;;
56321;SDS011;42227;6.376;-10.782;2024-01-27T10:35:39;21.20;;;15.00;;
56321;SDS011;42227;6.376;-10.782;2024-01-27T10:38:08;23.15;;;15.88;;
56321;SDS011;42227;6.376;-10.782;2024-01-27T10:40:36;20.70;;;16.45;;
56321;SDS011;42227;6.376;-10.782;2024-01-27T10:43:05;21.90;;;17.30;;
56321;SDS011;42227;6.376;-10.782;2024-01-27T10:45:39;24.88;;;16.65;;
56321;SDS011;42227;6.376;-10.782;2024-01-27T10:48:09;22.88;;;16.42;;
56321;SDS011;42227;6.376;-10.782;2024-01-27T10:50:39;26.83;;;16.75;;
56321;SDS011;42227;6.376;-10.782;2024-01-27T10:53:19;22.20;;;15.07;;
56321;SDS011;42227;6.376;-10.782;2024-01-27T10:55:53;20.92;;;14.05;;
56321;SDS011;42227;6.376;-10.782;2024-01-27T10:58:25;25.50;;;15.77;;
56321;SDS011;42227;6.376;-10.782;2024-01-27T11:00:55;24.20;;;15.23;;
56321;SDS011;42227;6.376;-10.782;2024-01-27T11:03:25;18.70;;;15.02;;
56321;SDS011;42227;6.376;-10.782;2024-01-27T11:05:56;18.48;;;13.80;;
56321;SDS011;42227;6.376;-10.782;2024-01-27T11:08:26;21.15;;;15.35;;
56321;SDS011;42227;6.376;-10.782;2024-01-27T11:10:55;23.85;;;14.40;;
56321;SDS011;42227;6.376;-10.782;2024-01-27T11:13:24;15.07;;;11.82;;
56321;SDS011;42227;6.376;-10.782;2024-01-27T11:15:55;21.83;;;12.30;;
56321;SDS011;42227;6.376;-10.782;2024-01-27T11:18:25;12.85;;;11.50;;
56321;SDS011;42227;6.376;-10.782;2024-01-27T11:20:54;28.63;;;13.70;;
56321;SDS011;42227;6.376;-10.782;2024-01-27T11:23:33;20.55;;;12.52;;
56321;SDS011;42227;6.376;-10.782;2024-01-27T11:26:03;15.20;;;11.63;;
56321;SDS011;42227;6.376;-10.782;2024-01-27T11:28:36;18.20;;;11.95;;
56321;SDS011;42227;6.376;-10.782;2024-01-27T11:31:05;31.92;;;14.45;;
56321;SDS011;42227;6.376;-10.782;2024-01-27T11:33:40;30.38;;;12.82;;
56321;SDS011;42227;6.376;-10.782;2024-01-27T11:36:17;16.95;;;11.57;;
56321;SDS011;42227;6.376;-10.782;2024-01-27T11:38:47;17.38;;;10.57;;
56321;SDS011;42227;6.376;-10.782;2024-01-27T11:41:23;17.88;;;12.45;;
56321;SDS011;42227;6.376;-10.782;2024-01-27T11:43:56;20.65;;;11.52;;
56321;SDS011;42227;6.376;-10.782;2024-01-27T11:46:26;44.55;;;14.20;;
56321;SDS011;42227;6.376;-10.782;2024-01-27T11:48:54;16.77;;;11.82;;
56321;SDS011;42227;6.376;-10.782;2024-01-27T11:51:24;25.95;;;12.07;;
56321;SDS011;42227;6.376;-10.782;2024-01-27T11:53:54;26.95;;;12.48;;
56321;SDS011;42227;6.376;-10.782;2024-01-27T11:56:23;24.35;;;12.00;;
56321;SDS011;42227;6.376;-10.782;2024-01-27T11:58:51;26.00;;;13.18;;
56321;SDS011;42227;6.376;-10.782;2024-01-27T12:01:19;21.58;;;12.20;;
56321;SDS011;42227;6.376;-10.782;2024-01-27T12:03:48;24.00;;;11.05;;
56321;SDS011;42227;6.376;-10.782;2024-01-27T12:06:17;20.50;;;10.60;;
56321;SDS011;42227;6.376;-10.782;2024-01-27T12:08:46;21.70;;;11.98;;
56321;SDS011;42227;6.376;-10.782;2024-01-27T12:11:16;19.77;;;11.35;;
56321;SDS011;42227;6.376;-10.782;2024-01-27T12:13:51;31.13;;;12.88;;
56321;SDS011;42227;6.376;-10.782;2024-01-27T12:16:21;17.40;;;11.93;;
56321;SDS011;42227;6.376;-10.782;2024-01-27T12:18:53;23.95;;;11.23;;
56321;SDS011;42227;6.376;-10.782;2024-01-27T12:21:22;18.75;;;11.73;;
56321;SDS011;42227;6.376;-10.782;2024-01-27T12:23:52;17.75;;;12.25;;
56321;SDS011;42227;6.376;-10.782;2024-01-27T12:26:21;31.65;;;12.50;;
56321;SDS011;42227;6.376;-10.782;2024-01-27T12:28:50;29.13;;;12.65;;
56321;SDS011;42227;6.376;-10.782;2024-01-27T12:31:19;24.05;;;12.75;;
56321;SDS011;42227;6.376;-10.782;2024-01-27T12:33:51;24.17;;;12.88;;
56321;SDS011;42227;6.376;-10.782;2024-01-27T12:36:21;28.05;;;12.15;;
56321;SDS011;42227;6.376;-10.782;2024-01-27T12:43:52;29.58;;;12.25;;
56321;SDS011;42227;6.376;-10.782;2024-01-27T12:46:21;47.10;;;14.52;;
56321;SDS011;42227;6.376;-10.782;2024-01-27T12:48:49;33.95;;;12.52;;
56321;SDS011;42227;6.376;-10.782;2024-01-27T12:51:18;24.02;;;11.60;;
56321;SDS011;42227;6.376;-10.782;2024-01-27T12:53:47;31.15;;;12.32;;
56321;SDS011;42227;6.376;-10.782;2024-01-27T12:56:16;24.80;;;12.75;;
56321;SDS011;42227;6.376;-10.782;2024-01-27T12:58:44;39.38;;;12.32;;
56321;SDS011;42227;6.376;-10.782;2024-01-27T13:01:13;26.38;;;13.52;;
56321;SDS011;42227;6.376;-10.782;2024-01-27T13:03:41;37.15;;;13.85;;
56321;SDS011;42227;6.376;-10.782;2024-01-27T13:06:12;39.42;;;14.18;;
56321;SDS011;42227;6.376;-10.782;2024-01-27T13:08:40;35.08;;;14.63;;
56321;SDS011;42227;6.376;-10.782;2024-01-27T13:11:09;24.60;;;12.80;;
56321;SDS011;42227;6.376;-10.782;2024-01-27T13:13:39;20.48;;;12.02;;
56321;SDS011;42227;6.376;-10.782;2024-01-27T13:16:09;23.05;;;14.75;;
56321;SDS011;42227;6.376;-10.782;2024-01-27T13:18:37;27.67;;;12.82;;
56321;SDS011;42227;6.376;-10.782;2024-01-27T13:21:06;29.65;;;12.57;;
56321;SDS011;42227;6.376;-10.782;2024-01-27T13:23:34;26.27;;;11.88;;
56321;SDS011;42227;6.376;-10.782;2024-01-27T13:26:03;37.20;;;15.95;;
56321;SDS011;42227;6.376;-10.782;2024-01-27T13:28:45;31.60;;;13.40;;
56321;SDS011;42227;6.376;-10.782;2024-01-27T13:31:14;18.92;;;13.48;;
56321;SDS011;42227;6.376;-10.782;2024-01-27T13:33:42;41.10;;;15.88;;
56321;SDS011;42227;6.376;-10.782;2024-01-27T13:36:11;28.92;;;13.85;;
56321;SDS011;42227;6.376;-10.782;2024-01-27T13:38:40;32.50;;;13.93;;
56321;SDS011;42227;6.376;-10.782;2024-01-27T13:41:08;28.50;;;14.02;;
56321;SDS011;42227;6.376;-10.782;2024-01-27T13:43:37;32.80;;;14.25;;
56321;SDS011;42227;6.376;-10.782;2024-01-27T13:46:05;31.50;;;14.18;;
56321;SDS011;42227;6.376;-10.782;2024-01-27T13:48:34;28.33;;;11.85;;
56321;SDS011;42227;6.376;-10.782;2024-01-27T13:51:02;31.83;;;12.80;;
56321;SDS011;42227;6.376;-10.782;2024-01-27T13:53:33;37.33;;;16.17;;
56321;SDS011;42227;6.376;-10.782;2024-01-27T13:58:26;34.40;;;12.82;;
56321;SDS011;42227;6.376;-10.782;2024-01-27T14:00:58;27.90;;;13.18;;
56321;SDS011;42227;6.376;-10.782;2024-01-27T14:03:29;30.20;;;13.70;;
56321;SDS011;42227;6.376;-10.782;2024-01-27T14:06:00;29.88;;;12.65;;
56321;SDS011;42227;6.376;-10.782;2024-01-27T14:08:29;35.47;;;15.48;;
56321;SDS011;42227;6.376;-10.782;2024-01-27T14:11:02;31.33;;;14.40;;
56321;SDS011;42227;6.376;-10.782;2024-01-27T14:13:35;30.05;;;13.90;;
56321;SDS011;42227;6.376;-10.782;2024-01-27T14:16:05;30.90;;;13.48;;
56321;SDS011;42227;6.376;-10.782;2024-01-27T14:18:34;27.05;;;15.07;;
56321;SDS011;42227;6.376;-10.782;2024-01-27T14:21:07;24.30;;;12.48;;
56321;SDS011;42227;6.376;-10.782;2024-01-27T14:23:40;26.77;;;15.23;;
56321;SDS011;42227;6.376;-10.782;2024-01-27T14:26:08;40.60;;;18.75;;